sensor_id;sensor_type;location;lat;lon;timestamp;temperature;humidity
15384;DHT22;7790;53.022;12.968;2023-11-18T00:02:00;21.40;45.90
15384;DHT22;7790;53.022;12.968;2023-11-18T00:06:01;21.30;45.90
15384;DHT22;7790;53.022;12.968;2023-11-18T00:10:03;21.30;45.90
15384;DHT22;7790;53.022;12.968;2023-11-18T00:14:05;21.20;46.00
15384;DHT22;7790;53.022;12.968;2023-11-18T00:18:06;21.30;46.10
15384;DHT22;7790;53.022;12.968;2023-11-18T00:22:07;21.40;46.00
15384;DHT22;7790;53.022;12.968;2023-11-18T00:26:08;21.40;45.80
15384;DHT22;7790;53.022;12.968;2023-11-18T00:30:11;21.50;45.80
15384;DHT22;7790;53.022;12.968;2023-11-18T00:34:12;21.50;45.70
15384;DHT22;7790;53.022;12.968;2023-11-18T00:38:13;21.60;45.70
15384;DHT22;7790;53.022;12.968;2023-11-18T00:42:14;21.60;45.60
15384;DHT22;7790;53.022;12.968;2023-11-18T00:46:16;21.70;45.60
15384;DHT22;7790;53.022;12.968;2023-11-18T00:50:17;21.70;45.60
15384;DHT22;7790;53.022;12.968;2023-11-18T00:54:18;21.70;45.60
15384;DHT22;7790;53.022;12.968;2023-11-18T00:58:20;21.60;45.60
15384;DHT22;7790;53.022;12.968;2023-11-18T01:02:20;21.50;45.70
15384;DHT22;7790;53.022;12.968;2023-11-18T01:06:21;21.50;45.80
15384;DHT22;7790;53.022;12.968;2023-11-18T01:10:22;21.40;45.90
15384;DHT22;7790;53.022;12.968;2023-11-18T01:14:23;21.40;45.90
15384;DHT22;7790;53.022;12.968;2023-11-18T01:18:24;21.30;45.90
15384;DHT22;7790;53.022;12.968;2023-11-18T01:22:25;21.30;45.90
15384;DHT22;7790;53.022;12.968;2023-11-18T01:26:25;21.30;45.90
15384;DHT22;7790;53.022;12.968;2023-11-18T01:30:27;21.20;46.00
15384;DHT22;7790;53.022;12.968;2023-11-18T01:34:28;21.10;46.00
15384;DHT22;7790;53.022;12.968;2023-11-18T01:38:29;21.10;46.00
15384;DHT22;7790;53.022;12.968;2023-11-18T01:42:31;21.10;46.10
15384;DHT22;7790;53.022;12.968;2023-11-18T01:46:32;21.30;46.00
15384;DHT22;7790;53.022;12.968;2023-11-18T01:50:33;21.40;45.90
15384;DHT22;7790;53.022;12.968;2023-11-18T01:54:36;21.40;45.70
15384;DHT22;7790;53.022;12.968;2023-11-18T01:58:41;21.50;45.80
15384;DHT22;7790;53.022;12.968;2023-11-18T02:02:42;21.70;45.70
15384;DHT22;7790;53.022;12.968;2023-11-18T02:06:44;21.70;45.60
15384;DHT22;7790;53.022;12.968;2023-11-18T02:11:10;21.80;45.60
15384;DHT22;7790;53.022;12.968;2023-11-18T02:15:14;21.70;45.70
15384;DHT22;7790;53.022;12.968;2023-11-18T02:19:20;21.60;45.80
15384;DHT22;7790;53.022;12.968;2023-11-18T02:23:23;21.50;45.90
15384;DHT22;7790;53.022;12.968;2023-11-18T02:27:24;21.40;46.00
15384;DHT22;7790;53.022;12.968;2023-11-18T02:31:34;21.40;46.10
15384;DHT22;7790;53.022;12.968;2023-11-18T02:35:44;21.40;46.00
15384;DHT22;7790;53.022;12.968;2023-11-18T02:39:53;21.30;46.00
15384;DHT22;7790;53.022;12.968;2023-11-18T02:43:55;21.30;46.00
15384;DHT22;7790;53.022;12.968;2023-11-18T02:47:58;21.20;45.90
15384;DHT22;7790;53.022;12.968;2023-11-18T02:51:59;21.20;45.90
15384;DHT22;7790;53.022;12.968;2023-11-18T02:56:00;21.20;45.90
15384;DHT22;7790;53.022;12.968;2023-11-18T03:00:05;21.10;46.10
15384;DHT22;7790;53.022;12.968;2023-11-18T03:04:11;21.00;46.10
15384;DHT22;7790;53.022;12.968;2023-11-18T03:08:14;20.90;46.10
15384;DHT22;7790;53.022;12.968;2023-11-18T03:12:15;21.10;46.10
15384;DHT22;7790;53.022;12.968;2023-11-18T03:16:16;21.20;46.00
15384;DHT22;7790;53.022;12.968;2023-11-18T03:20:19;21.20;45.80
15384;DHT22;7790;53.022;12.968;2023-11-18T03:24:20;21.30;45.80
15384;DHT22;7790;53.022;12.968;2023-11-18T03:28:21;21.40;45.70
15384;DHT22;7790;53.022;12.968;2023-11-18T03:32:24;21.60;45.70
15384;DHT22;7790;53.022;12.968;2023-11-18T03:36:25;21.70;45.50
15384;DHT22;7790;53.022;12.968;2023-11-18T03:40:26;21.60;45.60
15384;DHT22;7790;53.022;12.968;2023-11-18T03:44:29;21.60;45.70
15384;DHT22;7790;53.022;12.968;2023-11-18T03:48:30;21.50;45.80
15384;DHT22;7790;53.022;12.968;2023-11-18T03:52:31;21.40;46.00
15384;DHT22;7790;53.022;12.968;2023-11-18T03:56:32;21.30;46.00
15384;DHT22;7790;53.022;12.968;2023-11-18T04:00:33;21.20;46.00
15384;DHT22;7790;53.022;12.968;2023-11-18T04:04:33;21.20;45.90
15384;DHT22;7790;53.022;12.968;2023-11-18T04:08:34;21.20;46.00
15384;DHT22;7790;53.022;12.968;2023-11-18T04:12:36;21.10;46.00
15384;DHT22;7790;53.022;12.968;2023-11-18T04:16:37;21.10;46.10
15384;DHT22;7790;53.022;12.968;2023-11-18T04:20:41;21.00;46.10
15384;DHT22;7790;53.022;12.968;2023-11-18T04:24:42;20.90;46.10
15384;DHT22;7790;53.022;12.968;2023-11-18T04:28:45;21.10;46.10
15384;DHT22;7790;53.022;12.968;2023-11-18T04:32:46;21.20;46.10
15384;DHT22;7790;53.022;12.968;2023-11-18T04:36:47;21.20;45.90
15384;DHT22;7790;53.022;12.968;2023-11-18T04:40:48;21.20;45.80
15384;DHT22;7790;53.022;12.968;2023-11-18T04:44:49;21.30;45.80
15384;DHT22;7790;53.022;12.968;2023-11-18T04:48:51;21.40;45.90
15384;DHT22;7790;53.022;12.968;2023-11-18T04:52:53;21.50;45.80
15384;DHT22;7790;53.022;12.968;2023-11-18T04:56:54;21.60;45.80
15384;DHT22;7790;53.022;12.968;2023-11-18T05:00:55;21.60;45.70
15384;DHT22;7790;53.022;12.968;2023-11-18T05:04:57;21.50;45.70
15384;DHT22;7790;53.022;12.968;2023-11-18T05:08:58;21.40;45.90
15384;DHT22;7790;53.022;12.968;2023-11-18T05:12:59;21.30;45.90
15384;DHT22;7790;53.022;12.968;2023-11-18T05:16:59;21.30;46.00
15384;DHT22;7790;53.022;12.968;2023-11-18T05:21:01;21.20;46.00
15384;DHT22;7790;53.022;12.968;2023-11-18T05:25:04;21.20;46.00
15384;DHT22;7790;53.022;12.968;2023-11-18T05:29:05;21.10;46.00
15384;DHT22;7790;53.022;12.968;2023-11-18T05:33:06;21.10;46.00
15384;DHT22;7790;53.022;12.968;2023-11-18T05:37:07;21.00;46.10
15384;DHT22;7790;53.022;12.968;2023-11-18T05:41:08;20.90;46.00
15384;DHT22;7790;53.022;12.968;2023-11-18T05:45:17;20.80;46.60
15384;DHT22;7790;53.022;12.968;2023-11-18T05:49:28;21.00;46.10
15384;DHT22;7790;53.022;12.968;2023-11-18T05:53:29;21.10;46.00
15384;DHT22;7790;53.022;12.968;2023-11-18T05:57:31;21.10;45.80
15384;DHT22;7790;53.022;12.968;2023-11-18T06:01:32;21.20;45.80
15384;DHT22;7790;53.022;12.968;2023-11-18T06:05:33;21.40;45.80
15384;DHT22;7790;53.022;12.968;2023-11-18T06:09:35;21.50;45.70
15384;DHT22;7790;53.022;12.968;2023-11-18T06:13:36;21.60;45.70
15384;DHT22;7790;53.022;12.968;2023-11-18T06:17:37;21.60;45.70
15384;DHT22;7790;53.022;12.968;2023-11-18T06:21:38;21.50;45.80
15384;DHT22;7790;53.022;12.968;2023-11-18T06:25:40;21.30;45.80
15384;DHT22;7790;53.022;12.968;2023-11-18T06:29:41;21.30;46.00
15384;DHT22;7790;53.022;12.968;2023-11-18T06:33:43;21.20;46.00
15384;DHT22;7790;53.022;12.968;2023-11-18T06:37:44;21.20;46.10
15384;DHT22;7790;53.022;12.968;2023-11-18T06:41:45;21.20;45.90
15384;DHT22;7790;53.022;12.968;2023-11-18T06:45:51;21.10;45.90
15384;DHT22;7790;53.022;12.968;2023-11-18T06:49:52;21.10;45.80
15384;DHT22;7790;53.022;12.968;2023-11-18T06:53:57;21.20;45.90
15384;DHT22;7790;53.022;12.968;2023-11-18T06:57:58;21.50;45.80
15384;DHT22;7790;53.022;12.968;2023-11-18T07:01:59;21.70;45.40
15384;DHT22;7790;53.022;12.968;2023-11-18T07:06:00;21.90;45.20
15384;DHT22;7790;53.022;12.968;2023-11-18T07:10:01;21.80;45.80
15384;DHT22;7790;53.022;12.968;2023-11-18T07:14:01;22.00;45.60
15384;DHT22;7790;53.022;12.968;2023-11-18T07:18:03;22.10;45.40
15384;DHT22;7790;53.022;12.968;2023-11-18T07:22:04;22.10;45.40
15384;DHT22;7790;53.022;12.968;2023-11-18T07:26:07;22.20;45.50
15384;DHT22;7790;53.022;12.968;2023-11-18T07:30:08;22.20;45.50
15384;DHT22;7790;53.022;12.968;2023-11-18T07:34:11;22.30;45.50
15384;DHT22;7790;53.022;12.968;2023-11-18T07:38:12;22.30;45.60
15384;DHT22;7790;53.022;12.968;2023-11-18T07:42:13;22.40;45.60
15384;DHT22;7790;53.022;12.968;2023-11-18T07:46:15;22.40;45.60
15384;DHT22;7790;53.022;12.968;2023-11-18T07:50:17;22.40;45.50
15384;DHT22;7790;53.022;12.968;2023-11-18T07:54:18;22.40;45.60
15384;DHT22;7790;53.022;12.968;2023-11-18T07:58:18;22.50;45.60
15384;DHT22;7790;53.022;12.968;2023-11-18T08:02:20;22.50;45.50
15384;DHT22;7790;53.022;12.968;2023-11-18T08:06:21;22.50;45.40
15384;DHT22;7790;53.022;12.968;2023-11-18T08:10:22;22.60;45.40
15384;DHT22;7790;53.022;12.968;2023-11-18T08:14:25;22.70;45.30
15384;DHT22;7790;53.022;12.968;2023-11-18T08:18:26;22.60;45.30
15384;DHT22;7790;53.022;12.968;2023-11-18T08:22:28;22.70;45.30
15384;DHT22;7790;53.022;12.968;2023-11-18T08:26:29;22.60;45.30
15384;DHT22;7790;53.022;12.968;2023-11-18T08:30:30;22.50;45.40
15384;DHT22;7790;53.022;12.968;2023-11-18T08:34:32;22.40;45.40
15384;DHT22;7790;53.022;12.968;2023-11-18T08:38:36;22.40;45.50
15384;DHT22;7790;53.022;12.968;2023-11-18T08:42:37;22.40;45.40
15384;DHT22;7790;53.022;12.968;2023-11-18T08:46:37;22.40;45.10
15384;DHT22;7790;53.022;12.968;2023-11-18T08:50:39;22.40;45.60
15384;DHT22;7790;53.022;12.968;2023-11-18T08:54:44;22.50;45.00
15384;DHT22;7790;53.022;12.968;2023-11-18T08:59:03;22.50;45.00
15384;DHT22;7790;53.022;12.968;2023-11-18T09:03:08;22.60;45.00
15384;DHT22;7790;53.022;12.968;2023-11-18T09:07:10;22.60;44.90
15384;DHT22;7790;53.022;12.968;2023-11-18T09:11:13;22.60;44.90
15384;DHT22;7790;53.022;12.968;2023-11-18T09:15:17;22.60;44.90
15384;DHT22;7790;53.022;12.968;2023-11-18T09:19:23;22.70;44.90
15384;DHT22;7790;53.022;12.968;2023-11-18T09:23:25;22.70;44.80
15384;DHT22;7790;53.022;12.968;2023-11-18T09:27:27;22.70;44.80
15384;DHT22;7790;53.022;12.968;2023-11-18T09:31:29;22.70;44.70
15384;DHT22;7790;53.022;12.968;2023-11-18T09:35:32;22.70;44.70
15384;DHT22;7790;53.022;12.968;2023-11-18T09:39:35;22.80;44.70
15384;DHT22;7790;53.022;12.968;2023-11-18T09:43:39;22.80;44.60
15384;DHT22;7790;53.022;12.968;2023-11-18T09:47:47;22.90;44.60
15384;DHT22;7790;53.022;12.968;2023-11-18T09:51:48;22.90;44.50
15384;DHT22;7790;53.022;12.968;2023-11-18T09:55:57;23.00;44.50
15384;DHT22;7790;53.022;12.968;2023-11-18T10:00:07;23.00;44.50
15384;DHT22;7790;53.022;12.968;2023-11-18T10:04:20;22.90;44.60
15384;DHT22;7790;53.022;12.968;2023-11-18T10:08:22;22.80;44.60
15384;DHT22;7790;53.022;12.968;2023-11-18T10:12:26;22.80;44.70
15384;DHT22;7790;53.022;12.968;2023-11-18T10:16:28;22.70;44.70
15384;DHT22;7790;53.022;12.968;2023-11-18T10:24:45;22.50;44.80
15384;DHT22;7790;53.022;12.968;2023-11-18T10:28:46;22.40;44.70
15384;DHT22;7790;53.022;12.968;2023-11-18T10:32:59;22.30;44.80
15384;DHT22;7790;53.022;12.968;2023-11-18T10:37:06;22.30;44.90
15384;DHT22;7790;53.022;12.968;2023-11-18T10:41:07;22.10;44.80
15384;DHT22;7790;53.022;12.968;2023-11-18T10:45:08;22.10;44.70
15384;DHT22;7790;53.022;12.968;2023-11-18T10:49:13;22.00;44.60
15384;DHT22;7790;53.022;12.968;2023-11-18T10:53:19;21.80;44.70
15384;DHT22;7790;53.022;12.968;2023-11-18T10:57:21;21.70;44.60
15384;DHT22;7790;53.022;12.968;2023-11-18T11:01:36;21.70;44.50
15384;DHT22;7790;53.022;12.968;2023-11-18T11:05:42;21.70;44.50
15384;DHT22;7790;53.022;12.968;2023-11-18T11:09:44;21.60;44.50
15384;DHT22;7790;53.022;12.968;2023-11-18T11:13:50;21.50;44.40
15384;DHT22;7790;53.022;12.968;2023-11-18T11:18:01;21.50;44.60
15384;DHT22;7790;53.022;12.968;2023-11-18T11:22:10;21.40;44.60
15384;DHT22;7790;53.022;12.968;2023-11-18T11:26:45;21.40;44.60
15384;DHT22;7790;53.022;12.968;2023-11-18T11:31:17;21.40;44.80
15384;DHT22;7790;53.022;12.968;2023-11-18T11:35:31;21.30;44.90
15384;DHT22;7790;53.022;12.968;2023-11-18T11:39:34;21.20;44.90
15384;DHT22;7790;53.022;12.968;2023-11-18T11:43:37;21.20;44.80
15384;DHT22;7790;53.022;12.968;2023-11-18T11:47:41;21.20;45.20
15384;DHT22;7790;53.022;12.968;2023-11-18T11:52:06;21.50;44.90
15384;DHT22;7790;53.022;12.968;2023-11-18T11:56:12;21.70;44.80
15384;DHT22;7790;53.022;12.968;2023-11-18T12:00:22;21.80;44.70
15384;DHT22;7790;53.022;12.968;2023-11-18T12:04:26;21.90;44.90
15384;DHT22;7790;53.022;12.968;2023-11-18T12:08:29;21.90;44.80
15384;DHT22;7790;53.022;12.968;2023-11-18T12:12:30;22.00;44.80
15384;DHT22;7790;53.022;12.968;2023-11-18T12:16:59;22.00;44.80
15384;DHT22;7790;53.022;12.968;2023-11-18T12:21:08;22.10;44.70
15384;DHT22;7790;53.022;12.968;2023-11-18T12:29:34;22.20;44.60
15384;DHT22;7790;53.022;12.968;2023-11-18T12:42:52;22.40;44.60
15384;DHT22;7790;53.022;12.968;2023-11-18T12:47:03;22.40;44.50
15384;DHT22;7790;53.022;12.968;2023-11-18T12:51:19;22.40;44.50
15384;DHT22;7790;53.022;12.968;2023-11-18T12:55:20;22.50;44.50
15384;DHT22;7790;53.022;12.968;2023-11-18T12:59:21;22.50;44.40
15384;DHT22;7790;53.022;12.968;2023-11-18T13:03:24;22.50;44.50
15384;DHT22;7790;53.022;12.968;2023-11-18T13:07:26;22.60;44.40
15384;DHT22;7790;53.022;12.968;2023-11-18T13:11:26;22.70;44.40
15384;DHT22;7790;53.022;12.968;2023-11-18T13:15:27;22.70;44.40
15384;DHT22;7790;53.022;12.968;2023-11-18T13:19:29;22.70;44.40
15384;DHT22;7790;53.022;12.968;2023-11-18T13:23:30;22.70;44.30
15384;DHT22;7790;53.022;12.968;2023-11-18T13:27:31;22.70;44.30
15384;DHT22;7790;53.022;12.968;2023-11-18T13:31:33;22.70;44.30
15384;DHT22;7790;53.022;12.968;2023-11-18T13:35:35;22.80;44.30
15384;DHT22;7790;53.022;12.968;2023-11-18T13:39:36;22.80;44.30
15384;DHT22;7790;53.022;12.968;2023-11-18T13:43:46;22.80;44.30
15384;DHT22;7790;53.022;12.968;2023-11-18T13:47:50;22.90;44.00
15384;DHT22;7790;53.022;12.968;2023-11-18T13:51:53;22.90;44.00
15384;DHT22;7790;53.022;12.968;2023-11-18T13:55:54;22.90;44.00
15384;DHT22;7790;53.022;12.968;2023-11-18T13:59:54;22.90;44.00
15384;DHT22;7790;53.022;12.968;2023-11-18T14:03:55;22.90;44.00
15384;DHT22;7790;53.022;12.968;2023-11-18T14:08:03;22.90;44.10
15384;DHT22;7790;53.022;12.968;2023-11-18T14:12:09;22.90;44.10
15384;DHT22;7790;53.022;12.968;2023-11-18T14:16:10;22.80;44.00
15384;DHT22;7790;53.022;12.968;2023-11-18T14:20:12;22.80;44.20
15384;DHT22;7790;53.022;12.968;2023-11-18T14:24:14;22.70;44.30
15384;DHT22;7790;53.022;12.968;2023-11-18T14:28:15;22.60;44.10
15384;DHT22;7790;53.022;12.968;2023-11-18T14:32:16;22.60;44.20
15384;DHT22;7790;53.022;12.968;2023-11-18T14:36:17;22.60;44.00
15384;DHT22;7790;53.022;12.968;2023-11-18T14:40:19;22.70;44.10
15384;DHT22;7790;53.022;12.968;2023-11-18T14:44:24;22.60;44.00
15384;DHT22;7790;53.022;12.968;2023-11-18T14:48:26;22.70;44.10
15384;DHT22;7790;53.022;12.968;2023-11-18T14:52:27;22.70;44.00
15384;DHT22;7790;53.022;12.968;2023-11-18T14:56:28;22.70;43.90
15384;DHT22;7790;53.022;12.968;2023-11-18T15:00:29;22.80;43.90
15384;DHT22;7790;53.022;12.968;2023-11-18T15:04:32;22.80;43.90
15384;DHT22;7790;53.022;12.968;2023-11-18T15:08:33;22.80;43.80
15384;DHT22;7790;53.022;12.968;2023-11-18T15:12:34;22.80;43.80
15384;DHT22;7790;53.022;12.968;2023-11-18T15:16:35;22.80;43.70
15384;DHT22;7790;53.022;12.968;2023-11-18T15:20:36;22.70;43.90
15384;DHT22;7790;53.022;12.968;2023-11-18T15:24:38;22.60;44.00
15384;DHT22;7790;53.022;12.968;2023-11-18T15:28:39;22.60;44.00
15384;DHT22;7790;53.022;12.968;2023-11-18T15:32:45;22.50;43.80
15384;DHT22;7790;53.022;12.968;2023-11-18T15:36:46;22.60;44.00
15384;DHT22;7790;53.022;12.968;2023-11-18T15:40:51;22.60;43.90
15384;DHT22;7790;53.022;12.968;2023-11-18T15:44:51;22.60;43.80
15384;DHT22;7790;53.022;12.968;2023-11-18T15:48:54;22.70;43.80
15384;DHT22;7790;53.022;12.968;2023-11-18T15:52:56;22.70;43.70
15384;DHT22;7790;53.022;12.968;2023-11-18T15:56:57;22.70;43.60
15384;DHT22;7790;53.022;12.968;2023-11-18T16:00:58;22.80;43.20
15384;DHT22;7790;53.022;12.968;2023-11-18T16:05:00;22.90;43.30
15384;DHT22;7790;53.022;12.968;2023-11-18T16:09:00;22.80;43.30
15384;DHT22;7790;53.022;12.968;2023-11-18T16:13:02;22.80;43.50
15384;DHT22;7790;53.022;12.968;2023-11-18T16:17:03;22.70;42.80
15384;DHT22;7790;53.022;12.968;2023-11-18T16:21:04;22.70;43.20
15384;DHT22;7790;53.022;12.968;2023-11-18T16:25:05;22.60;43.00
15384;DHT22;7790;53.022;12.968;2023-11-18T16:29:06;22.50;42.70
15384;DHT22;7790;53.022;12.968;2023-11-18T16:33:07;22.60;42.50
15384;DHT22;7790;53.022;12.968;2023-11-18T16:37:08;22.60;42.40
15384;DHT22;7790;53.022;12.968;2023-11-18T16:41:09;22.70;42.50
15384;DHT22;7790;53.022;12.968;2023-11-18T16:45:11;22.70;42.40
15384;DHT22;7790;53.022;12.968;2023-11-18T16:49:12;22.70;42.30
15384;DHT22;7790;53.022;12.968;2023-11-18T16:53:15;22.60;42.80
15384;DHT22;7790;53.022;12.968;2023-11-18T16:57:17;22.70;42.60
15384;DHT22;7790;53.022;12.968;2023-11-18T17:01:17;22.70;42.10
15384;DHT22;7790;53.022;12.968;2023-11-18T17:05:18;22.60;42.20
15384;DHT22;7790;53.022;12.968;2023-11-18T17:09:19;22.60;42.20
15384;DHT22;7790;53.022;12.968;2023-11-18T17:13:20;22.50;42.40
15384;DHT22;7790;53.022;12.968;2023-11-18T17:17:22;22.40;42.40
15384;DHT22;7790;53.022;12.968;2023-11-18T17:21:23;22.40;42.70
15384;DHT22;7790;53.022;12.968;2023-11-18T17:25:24;22.40;42.70
15384;DHT22;7790;53.022;12.968;2023-11-18T17:29:25;22.40;42.60
15384;DHT22;7790;53.022;12.968;2023-11-18T17:33:26;22.40;42.80
15384;DHT22;7790;53.022;12.968;2023-11-18T17:37:29;22.40;42.60
15384;DHT22;7790;53.022;12.968;2023-11-18T17:41:30;22.50;42.70
15384;DHT22;7790;53.022;12.968;2023-11-18T17:45:31;22.40;42.40
15384;DHT22;7790;53.022;12.968;2023-11-18T17:49:32;22.30;42.50
15384;DHT22;7790;53.022;12.968;2023-11-18T17:53:33;22.40;42.60
15384;DHT22;7790;53.022;12.968;2023-11-18T17:57:35;22.30;42.60
15384;DHT22;7790;53.022;12.968;2023-11-18T18:01:36;22.30;42.70
15384;DHT22;7790;53.022;12.968;2023-11-18T18:05:37;22.20;42.80
15384;DHT22;7790;53.022;12.968;2023-11-18T18:09:38;22.20;43.00
15384;DHT22;7790;53.022;12.968;2023-11-18T18:13:39;22.20;42.90
15384;DHT22;7790;53.022;12.968;2023-11-18T18:17:40;22.20;43.00
15384;DHT22;7790;53.022;12.968;2023-11-18T18:21:41;22.20;43.00
15384;DHT22;7790;53.022;12.968;2023-11-18T18:25:42;22.20;43.10
15384;DHT22;7790;53.022;12.968;2023-11-18T18:29:43;22.20;43.10
15384;DHT22;7790;53.022;12.968;2023-11-18T18:33:44;22.20;43.20
15384;DHT22;7790;53.022;12.968;2023-11-18T18:37:45;22.30;43.20
15384;DHT22;7790;53.022;12.968;2023-11-18T18:41:46;22.20;43.20
15384;DHT22;7790;53.022;12.968;2023-11-18T18:45:46;22.00;42.90
15384;DHT22;7790;53.022;12.968;2023-11-18T18:49:48;21.90;43.20
15384;DHT22;7790;53.022;12.968;2023-11-18T18:53:49;21.90;43.20
15384;DHT22;7790;53.022;12.968;2023-11-18T18:57:50;21.90;43.20
15384;DHT22;7790;53.022;12.968;2023-11-18T19:01:50;21.90;43.20
15384;DHT22;7790;53.022;12.968;2023-11-18T19:05:51;21.90;43.30
15384;DHT22;7790;53.022;12.968;2023-11-18T19:09:52;21.90;43.40
15384;DHT22;7790;53.022;12.968;2023-11-18T19:13:53;22.10;43.30
15384;DHT22;7790;53.022;12.968;2023-11-18T19:17:54;22.10;42.80
15384;DHT22;7790;53.022;12.968;2023-11-18T19:21:55;22.10;42.80
15384;DHT22;7790;53.022;12.968;2023-11-18T19:25:55;22.10;43.10
15384;DHT22;7790;53.022;12.968;2023-11-18T19:29:56;22.00;43.10
15384;DHT22;7790;53.022;12.968;2023-11-18T19:33:57;22.00;43.30
15384;DHT22;7790;53.022;12.968;2023-11-18T19:37:59;22.00;43.30
15384;DHT22;7790;53.022;12.968;2023-11-18T19:42:07;22.00;43.30
15384;DHT22;7790;53.022;12.968;2023-11-18T19:46:08;22.10;43.00
15384;DHT22;7790;53.022;12.968;2023-11-18T19:50:10;22.30;42.90
15384;DHT22;7790;53.022;12.968;2023-11-18T19:54:11;22.30;42.80
15384;DHT22;7790;53.022;12.968;2023-11-18T19:58:12;22.40;43.00
15384;DHT22;7790;53.022;12.968;2023-11-18T20:02:13;22.40;43.30
15384;DHT22;7790;53.022;12.968;2023-11-18T20:06:14;22.50;43.30
15384;DHT22;7790;53.022;12.968;2023-11-18T20:10:14;22.50;43.30
15384;DHT22;7790;53.022;12.968;2023-11-18T20:14:15;22.50;43.30
15384;DHT22;7790;53.022;12.968;2023-11-18T20:18:16;22.60;43.30
15384;DHT22;7790;53.022;12.968;2023-11-18T20:22:19;22.60;43.30
15384;DHT22;7790;53.022;12.968;2023-11-18T20:26:20;22.60;43.20
15384;DHT22;7790;53.022;12.968;2023-11-18T20:30:22;22.70;43.30
15384;DHT22;7790;53.022;12.968;2023-11-18T20:34:24;22.60;43.40
15384;DHT22;7790;53.022;12.968;2023-11-18T20:38:25;22.60;43.40
15384;DHT22;7790;53.022;12.968;2023-11-18T20:42:27;22.60;43.40
15384;DHT22;7790;53.022;12.968;2023-11-18T20:46:28;22.60;43.20
15384;DHT22;7790;53.022;12.968;2023-11-18T20:50:29;22.60;43.60
15384;DHT22;7790;53.022;12.968;2023-11-18T20:54:30;22.60;43.10
15384;DHT22;7790;53.022;12.968;2023-11-18T20:58:30;22.70;43.80
15384;DHT22;7790;53.022;12.968;2023-11-18T21:02:32;22.70;43.30
15384;DHT22;7790;53.022;12.968;2023-11-18T21:06:34;22.80;43.30
15384;DHT22;7790;53.022;12.968;2023-11-18T21:10:35;22.70;43.30
15384;DHT22;7790;53.022;12.968;2023-11-18T21:14:36;22.60;43.30
15384;DHT22;7790;53.022;12.968;2023-11-18T21:18:36;22.50;43.30
15384;DHT22;7790;53.022;12.968;2023-11-18T21:22:38;22.40;43.30
15384;DHT22;7790;53.022;12.968;2023-11-18T21:26:40;22.30;43.50
15384;DHT22;7790;53.022;12.968;2023-11-18T21:30:41;22.30;43.40
15384;DHT22;7790;53.022;12.968;2023-11-18T21:34:42;22.30;43.30
15384;DHT22;7790;53.022;12.968;2023-11-18T21:38:43;22.40;43.20
15384;DHT22;7790;53.022;12.968;2023-11-18T21:42:44;22.50;43.00
15384;DHT22;7790;53.022;12.968;2023-11-18T21:46:45;22.40;42.90
15384;DHT22;7790;53.022;12.968;2023-11-18T21:50:46;22.50;43.00
15384;DHT22;7790;53.022;12.968;2023-11-18T21:54:47;22.40;42.80
15384;DHT22;7790;53.022;12.968;2023-11-18T21:58:48;22.50;42.80
15384;DHT22;7790;53.022;12.968;2023-11-18T22:02:49;22.40;42.60
15384;DHT22;7790;53.022;12.968;2023-11-18T22:06:50;22.40;42.50
15384;DHT22;7790;53.022;12.968;2023-11-18T22:10:50;22.40;42.50
15384;DHT22;7790;53.022;12.968;2023-11-18T22:14:52;22.40;42.50
15384;DHT22;7790;53.022;12.968;2023-11-18T22:18:57;22.40;42.50
15384;DHT22;7790;53.022;12.968;2023-11-18T22:22:58;22.40;42.40
15384;DHT22;7790;53.022;12.968;2023-11-18T22:27:00;22.40;42.40
15384;DHT22;7790;53.022;12.968;2023-11-18T22:31:01;22.40;42.40
15384;DHT22;7790;53.022;12.968;2023-11-18T22:35:05;22.30;42.40
15384;DHT22;7790;53.022;12.968;2023-11-18T22:39:07;22.30;42.40
15384;DHT22;7790;53.022;12.968;2023-11-18T22:43:11;22.30;42.40
15384;DHT22;7790;53.022;12.968;2023-11-18T22:47:12;22.30;42.30
15384;DHT22;7790;53.022;12.968;2023-11-18T22:51:15;22.20;42.40
15384;DHT22;7790;53.022;12.968;2023-11-18T22:55:17;22.20;42.30
15384;DHT22;7790;53.022;12.968;2023-11-18T22:59:19;22.20;42.30
15384;DHT22;7790;53.022;12.968;2023-11-18T23:03:21;22.20;42.20
15384;DHT22;7790;53.022;12.968;2023-11-18T23:07:21;22.20;42.20
15384;DHT22;7790;53.022;12.968;2023-11-18T23:11:22;22.20;42.20
15384;DHT22;7790;53.022;12.968;2023-11-18T23:15:25;22.20;42.20
15384;DHT22;7790;53.022;12.968;2023-11-18T23:19:27;22.20;42.20
15384;DHT22;7790;53.022;12.968;2023-11-18T23:23:28;22.20;42.10
15384;DHT22;7790;53.022;12.968;2023-11-18T23:27:28;22.20;42.10
15384;DHT22;7790;53.022;12.968;2023-11-18T23:31:32;22.20;42.20
15384;DHT22;7790;53.022;12.968;2023-11-18T23:35:33;22.10;42.10
15384;DHT22;7790;53.022;12.968;2023-11-18T23:39:34;22.10;42.10
15384;DHT22;7790;53.022;12.968;2023-11-18T23:43:34;22.10;42.10
15384;DHT22;7790;53.022;12.968;2023-11-18T23:47:37;22.10;42.10
15384;DHT22;7790;53.022;12.968;2023-11-18T23:51:38;22.10;42.20
15384;DHT22;7790;53.022;12.968;2023-11-18T23:55:39;22.10;42.10
15384;DHT22;7790;53.022;12.968;2023-11-18T23:59:40;22.00;42.10
